Horizon II — 3FHB4 — position and weather

sailwx.info

Track history (hours):
 
Tides and Currents Weather Stations Pressure Air Temp Water Temp Dewpoint Dewpoint Depression Visibility Wind Speed Wind Dir Waves Ship Positions

Horizon II

Last reported at 2017-Jun-22 19:30 UTC. Time now 2017-Jun-24 05:20 UTC.
Position N 39°40' W 009°50'.

Length 255 m; draft 10 m.

Type: Cargo ship. MMSI: 357568000.

Date/timePositionNaut miles runAvg speedWind from/ knotsBaromVisibWave heightAir tempDewpointWater temp
2017-Jun-22 19:30N 39°40' W 009°50'911.7
2017-Jun-22 18:45N 39°31' W 009°50'311.3
2017-Jun-22 18:27N 39°28' W 009°50'511.5
2017-Jun-22 18:00N 39°23' W 009°50'612.1
2017-Jun-22 17:30N 39°17' W 009°50'611.8
2017-Jun-22 17:00N 39°11' W 009°51'611.6
2017-Jun-22 16:30N 39°05' W 009°51'611.6
2017-Jun-22 16:00N 38°59' W 009°51'611.5
2017-Jun-22 15:30N 38°53' W 009°51'611.6
2017-Jun-22 15:00N 38°48' W 009°51'611.5
2017-Jun-22 14:30N 38°42' W 009°51'1211.7
2017-Jun-22 13:30N 38°30' W 009°47'611.5
2017-Jun-22 13:00N 38°25' W 009°46'611.4
2017-Jun-22 12:30N 38°19' W 009°44'611.7
2017-Jun-22 12:00N 38°14' W 009°42'611.4
2017-Jun-22 11:30N 38°08' W 009°41'611.3
2017-Jun-22 11:00N 38°03' W 009°39'611.5
2017-Jun-22 10:30N 37°57' W 009°37'611.6
2017-Jun-22 09:58N 37°51' W 009°36'511.5
2017-Jun-22 09:30N 37°46' W 009°34'3912.0
2017-Jun-22 06:14N 37°07' W 009°23'312.0
2017-Jun-22 06:00N 37°04' W 009°22'912.2
2017-Jun-22 05:14N 36°55' W 009°20'511.8
2017-Jun-22 04:51N 36°51' W 009°17'812.3
2017-Jun-22 04:09N 36°45' W 009°10'212.5
2017-Jun-22 04:00N 36°44' W 009°08'712.6
2017-Jun-22 03:28N 36°42' W 008°60'612.3
2017-Jun-22 03:00N 36°40' W 008°53'1612.1
2017-Jun-22 01:43N 36°35' W 008°35'2811.8
2017-Jun-21 23:20N 36°27' W 008°01'12711.3
2017-Jun-21 12:06N 36°00' W 005°27'110.3
2017-Jun-21 11:59N 36°00' W 005°26'510.8
2017-Jun-21 11:30N 36°02' W 005°20'611.2
2017-Jun-21 11:00N 36°03' W 005°13'13912.4
2017-Jun-20 23:44N 36°11' W 002°21'1011.8
2017-Jun-20 22:53N 36°13' W 002°09'511.8
2017-Jun-20 22:30N 36°13' W 002°03'611.8
2017-Jun-20 22:00N 36°14' W 001°56'612.1
2017-Jun-20 21:30N 36°16' W 001°48'1112.4
2017-Jun-20 20:38N 36°18' W 001°35'812.5
2017-Jun-20 19:59N 36°19' W 001°26'612.7
2017-Jun-20 19:30N 36°21' W 001°18'1612.8
2017-Jun-20 18:13N 36°24' W 000°58'312.7
2017-Jun-20 17:58N 36°24' W 000°54'612.8
2017-Jun-20 17:30N 36°26' W 000°47'612.7
2017-Jun-20 17:00N 36°27' W 000°39'612.7
2017-Jun-20 16:30N 36°28' W 000°32'1812.4
2017-Jun-20 15:03N 36°32' W 000°10'112.6
2017-Jun-20 14:56N 36°32' W 000°08'1212.4
2017-Jun-20 14:00N 36°35' E 000°07'612.5
2017-Jun-20 13:30N 36°36' E 000°14'712.4
2017-Jun-20 12:58N 36°37' E 000°22'612.3
2017-Jun-20 12:29N 36°38' E 000°30'612.2
2017-Jun-20 11:59N 36°39' E 000°37'2812.2
2017-Jun-20 09:41N 36°46' E 001°11'212.1
2017-Jun-20 09:30N 36°46' E 001°14'1312.4
2017-Jun-20 08:28N 36°48' E 001°30'612.7
2017-Jun-20 08:00N 36°49' E 001°37'4312.3
2017-Jun-20 04:32N 36°57' E 002°29'112.4
2017-Jun-20 04:28N 36°58' E 002°30'612.2
2017-Jun-20 04:00N 36°59' E 002°37'612.1
2017-Jun-20 03:30N 37°00' E 002°44'612.1
2017-Jun-20 03:00N 37°01' E 002°52'912.0
2017-Jun-20 02:13N 37°03' E 003°03'1011.9
2017-Jun-20 01:23N 37°05' E 003°16'411.8
2017-Jun-20 01:00N 37°06' E 003°21'711.7
2017-Jun-20 00:26N 37°08' E 003°29'911.5
2017-Jun-19 23:38N 37°09' E 003°41'211.5
2017-Jun-19 23:29N 37°10' E 003°43'511.5
2017-Jun-19 23:00N 37°11' E 003°50'611.6
2017-Jun-19 22:30N 37°12' E 003°57'611.8
2017-Jun-19 22:00N 37°13' E 004°04'611.7
2017-Jun-19 21:30N 37°14' E 004°11'611.9
2017-Jun-19 21:00N 37°15' E 004°19'2111.8
2017-Jun-19 19:13N 37°20' E 004°44'312.0
2017-Jun-19 19:00N 37°20' E 004°48'611.9
2017-Jun-19 18:30N 37°22' E 004°55'612.0
2017-Jun-19 18:00N 37°23' E 005°02'612.0
2017-Jun-19 17:30N 37°24' E 005°10'612.1
2017-Jun-19 17:00N 37°25' E 005°17'612.1
2017-Jun-19 16:30N 37°26' E 005°25'612.2
2017-Jun-19 16:00N 37°28' E 005°32'612.2
2017-Jun-19 15:30N 37°29' E 005°40'612.1
2017-Jun-19 15:00N 37°30' E 005°47'2812.0
2017-Jun-19 12:39N 37°36' E 006°22'8812.1
2017-Jun-19 05:23N 37°44' E 008°13'512.2
2017-Jun-19 04:59N 37°44' E 008°19'612.1
2017-Jun-19 04:30N 37°44' E 008°26'1012.2
2017-Jun-19 03:41N 37°43' E 008°39'312.1
2017-Jun-19 03:24N 37°43' E 008°43'2711.7
2017-Jun-19 01:08N 37°43' E 009°17'4012.0
2017-Jun-18 21:48N 37°42' E 010°07'16712.2
2017-Jun-18 08:06N 36°45' E 013°25'112.3
2017-Jun-18 08:00N 36°45' E 013°26'612.2
2017-Jun-18 07:30N 36°42' E 013°33'612.0
2017-Jun-18 07:00N 36°40' E 013°41'611.9
2017-Jun-18 06:30N 36°38' E 013°48'611.8
2017-Jun-18 06:00N 36°36' E 013°54'611.7
2017-Jun-18 05:30N 36°34' E 014°01'611.8
2017-Jun-18 05:00N 36°32' E 014°08'611.5
2017-Jun-18 04:30N 36°31' E 014°15'611.4
2017-Jun-18 04:00N 36°29' E 014°22'611.5
2017-Jun-18 03:30N 36°27' E 014°29'611.5
2017-Jun-18 03:00N 36°25' E 014°35'611.5
2017-Jun-18 02:30N 36°24' E 014°42'611.4
2017-Jun-18 02:00N 36°22' E 014°49'611.3
2017-Jun-18 01:30N 36°20' E 014°56'611.3
2017-Jun-18 00:59N 36°20' E 015°03'611.6
2017-Jun-18 00:29N 36°20' E 015°10'611.8
2017-Jun-17 23:59N 36°20' E 015°17'611.6
2017-Jun-17 23:28N 36°20' E 015°25'  
2017-Jun-15 16:07N 35°02' E 027°22'113.3
2017-Jun-15 16:00N 35°01' E 027°24'35012.8
2017-Jun-14 12:44N 32°41' E 033°50'913.0
2017-Jun-14 12:04N 32°39' E 033°60'512.9
2017-Jun-14 11:42N 32°38' E 034°05'713.0
2017-Jun-14 11:11N 32°36' E 034°13'1512.6
2017-Jun-14 09:59N 32°32' E 034°31'612.1
2017-Jun-14 09:30N 32°31' E 034°37'612.0
2017-Jun-14 09:00N 32°30' E 034°44'510.4
2017-Jun-14 08:30N 32°28' E 034°50'2 3.4
2017-Jun-14 08:00N 32°28' E 034°52'0 0.0
2017-Jun-14 07:29N 32°28' E 034°52'0 0.0
2017-Jun-14 06:59N 32°28' E 034°52'0 0.0
2017-Jun-14 06:29N 32°28' E 034°52'0 0.0
2017-Jun-14 05:59N 32°28' E 034°52'0 0.0
2017-Jun-14 05:29N 32°28' E 034°52'0 0.0
2017-Jun-14 04:59N 32°28' E 034°52'0 0.0
2017-Jun-14 04:29N 32°28' E 034°52'0 0.0
2017-Jun-14 03:59N 32°28' E 034°52'0 0.0
2017-Jun-14 03:29N 32°28' E 034°52'0 0.0
2017-Jun-14 02:59N 32°28' E 034°52'0 0.0
2017-Jun-14 02:26N 32°28' E 034°52'0 0.0
2017-Jun-14 01:59N 32°28' E 034°52'0 0.0
2017-Jun-14 01:29N 32°28' E 034°52'0 0.0
2017-Jun-14 00:59N 32°28' E 034°52'0 0.0
2017-Jun-14 00:29N 32°28' E 034°52'0 0.0
2017-Jun-13 23:56N 32°28' E 034°52'0 0.0
2017-Jun-13 23:29N 32°28' E 034°52'0 0.0
2017-Jun-13 22:59N 32°28' E 034°52'0 0.0
2017-Jun-13 22:29N 32°28' E 034°52'0 0.0
2017-Jun-13 21:59N 32°28' E 034°52'0 0.0
2017-Jun-13 21:26N 32°28' E 034°52'0 0.0
2017-Jun-13 20:59N 32°28' E 034°52'0 0.0
2017-Jun-13 20:29N 32°28' E 034°52'0 0.0
2017-Jun-13 19:59N 32°28' E 034°52'0 0.0
2017-Jun-13 19:29N 32°28' E 034°52'0 0.0
2017-Jun-13 18:59N 32°28' E 034°52'0 0.0
2017-Jun-13 18:29N 32°28' E 034°52'0 0.0
2017-Jun-13 17:59N 32°28' E 034°52'0 0.0
2017-Jun-13 17:29N 32°28' E 034°52'0 0.0
2017-Jun-13 16:59N 32°28' E 034°52'0 0.0
2017-Jun-13 16:29N 32°28' E 034°52'0 0.0
2017-Jun-13 15:59N 32°28' E 034°52'0 0.0
2017-Jun-13 15:29N 32°28' E 034°52'0 0.0
2017-Jun-13 14:59N 32°28' E 034°52'0 0.0
2017-Jun-13 13:59N 32°28' E 034°52'0 0.0
2017-Jun-13 13:29N 32°28' E 034°52'0 0.0
2017-Jun-13 12:59N 32°28' E 034°52'0 0.0
2017-Jun-13 12:29N 32°28' E 034°52'0 0.0
2017-Jun-13 11:59N 32°28' E 034°52'0 0.0
2017-Jun-13 11:29N 32°28' E 034°52'0 0.0
2017-Jun-13 10:59N 32°28' E 034°52'0 0.0
2017-Jun-13 10:29N 32°28' E 034°52'0 0.0
2017-Jun-13 09:59N 32°28' E 034°52'0 0.0
2017-Jun-13 09:26N 32°28' E 034°52'0 0.0
2017-Jun-13 08:59N 32°28' E 034°52'0 0.0
2017-Jun-13 08:29N 32°28' E 034°52'0 0.0
2017-Jun-13 07:59N 32°28' E 034°52'0 0.0
2017-Jun-13 07:23N 32°28' E 034°52'0 0.0
2017-Jun-13 06:59N 32°28' E 034°52'0 0.0
2017-Jun-13 06:29N 32°28' E 034°52'0 0.0
2017-Jun-13 05:59N 32°28' E 034°52'0 0.0
2017-Jun-13 05:26N 32°28' E 034°52'0 0.0
2017-Jun-13 04:59N 32°28' E 034°52'0 0.0
2017-Jun-13 04:29N 32°28' E 034°52'0 0.0
2017-Jun-13 03:59N 32°28' E 034°52'0 0.0
2017-Jun-13 03:29N 32°28' E 034°52'0 0.0
2017-Jun-13 02:59N 32°28' E 034°52'0 0.0
2017-Jun-13 02:29N 32°28' E 034°52'0 0.0
2017-Jun-13 01:59N 32°28' E 034°52'0 0.0
2017-Jun-13 01:29N 32°28' E 034°52'0 0.0
2017-Jun-13 00:59N 32°28' E 034°52'0 0.0
2017-Jun-13 00:29N 32°28' E 034°52'0 0.0
2017-Jun-12 23:59N 32°28' E 034°52'0 0.0
2017-Jun-12 23:29N 32°28' E 034°52'0 0.0
2017-Jun-12 22:59N 32°28' E 034°52'0 0.0
2017-Jun-12 22:29N 32°28' E 034°52'0 0.0
2017-Jun-12 21:59N 32°28' E 034°52'0 0.0
2017-Jun-12 21:29N 32°28' E 034°52'0 0.0
2017-Jun-12 20:59N 32°28' E 034°52'0 0.0
2017-Jun-12 20:29N 32°28' E 034°52'0 0.0
2017-Jun-12 19:59N 32°28' E 034°52'  
Track history (hours):
 
Tides and Currents Weather Stations Pressure Air Temp Water Temp Dewpoint Dewpoint Depression Visibility Wind Speed Wind Dir Waves Ship Positions

Horizon II

Last reported at 2017-Jun-22 19:30 UTC. Time now 2017-Jun-24 05:20 UTC.
Position N 39°40' W 009°50'.

Length 255 m; draft 10 m.

Type: Cargo ship. MMSI: 357568000.

Date/timePositionNaut miles runAvg speedWind from/ knotsBaromVisibWave heightAir tempDewpointWater temp
2017-Jun-22 19:30N 39°40' W 009°50'911.7
2017-Jun-22 18:45N 39°31' W 009°50'311.3
2017-Jun-22 18:27N 39°28' W 009°50'511.5
2017-Jun-22 18:00N 39°23' W 009°50'612.1
2017-Jun-22 17:30N 39°17' W 009°50'611.8
2017-Jun-22 17:00N 39°11' W 009°51'611.6
2017-Jun-22 16:30N 39°05' W 009°51'611.6
2017-Jun-22 16:00N 38°59' W 009°51'611.5
2017-Jun-22 15:30N 38°53' W 009°51'611.6
2017-Jun-22 15:00N 38°48' W 009°51'611.5
2017-Jun-22 14:30N 38°42' W 009°51'1211.7
2017-Jun-22 13:30N 38°30' W 009°47'611.5
2017-Jun-22 13:00N 38°25' W 009°46'611.4
2017-Jun-22 12:30N 38°19' W 009°44'611.7
2017-Jun-22 12:00N 38°14' W 009°42'611.4
2017-Jun-22 11:30N 38°08' W 009°41'611.3
2017-Jun-22 11:00N 38°03' W 009°39'611.5
2017-Jun-22 10:30N 37°57' W 009°37'611.6
2017-Jun-22 09:58N 37°51' W 009°36'511.5
2017-Jun-22 09:30N 37°46' W 009°34'3912.0
2017-Jun-22 06:14N 37°07' W 009°23'312.0
2017-Jun-22 06:00N 37°04' W 009°22'912.2
2017-Jun-22 05:14N 36°55' W 009°20'511.8
2017-Jun-22 04:51N 36°51' W 009°17'812.3
2017-Jun-22 04:09N 36°45' W 009°10'212.5
2017-Jun-22 04:00N 36°44' W 009°08'712.6
2017-Jun-22 03:28N 36°42' W 008°60'612.3
2017-Jun-22 03:00N 36°40' W 008°53'1612.1
2017-Jun-22 01:43N 36°35' W 008°35'2811.8
2017-Jun-21 23:20N 36°27' W 008°01'12711.3
2017-Jun-21 12:06N 36°00' W 005°27'110.3
2017-Jun-21 11:59N 36°00' W 005°26'510.8
2017-Jun-21 11:30N 36°02' W 005°20'611.2
2017-Jun-21 11:00N 36°03' W 005°13'13912.4
2017-Jun-20 23:44N 36°11' W 002°21'1011.8
2017-Jun-20 22:53N 36°13' W 002°09'511.8
2017-Jun-20 22:30N 36°13' W 002°03'611.8
2017-Jun-20 22:00N 36°14' W 001°56'612.1
2017-Jun-20 21:30N 36°16' W 001°48'1112.4
2017-Jun-20 20:38N 36°18' W 001°35'812.5
2017-Jun-20 19:59N 36°19' W 001°26'612.7
2017-Jun-20 19:30N 36°21' W 001°18'1612.8
2017-Jun-20 18:13N 36°24' W 000°58'312.7
2017-Jun-20 17:58N 36°24' W 000°54'612.8
2017-Jun-20 17:30N 36°26' W 000°47'612.7
2017-Jun-20 17:00N 36°27' W 000°39'612.7
2017-Jun-20 16:30N 36°28' W 000°32'1812.4
2017-Jun-20 15:03N 36°32' W 000°10'112.6
2017-Jun-20 14:56N 36°32' W 000°08'1212.4
2017-Jun-20 14:00N 36°35' E 000°07'612.5
2017-Jun-20 13:30N 36°36' E 000°14'712.4
2017-Jun-20 12:58N 36°37' E 000°22'612.3
2017-Jun-20 12:29N 36°38' E 000°30'612.2
2017-Jun-20 11:59N 36°39' E 000°37'2812.2
2017-Jun-20 09:41N 36°46' E 001°11'212.1
2017-Jun-20 09:30N 36°46' E 001°14'1312.4
2017-Jun-20 08:28N 36°48' E 001°30'612.7
2017-Jun-20 08:00N 36°49' E 001°37'4312.3
2017-Jun-20 04:32N 36°57' E 002°29'112.4
2017-Jun-20 04:28N 36°58' E 002°30'612.2
2017-Jun-20 04:00N 36°59' E 002°37'612.1
2017-Jun-20 03:30N 37°00' E 002°44'612.1
2017-Jun-20 03:00N 37°01' E 002°52'912.0
2017-Jun-20 02:13N 37°03' E 003°03'1011.9
2017-Jun-20 01:23N 37°05' E 003°16'411.8
2017-Jun-20 01:00N 37°06' E 003°21'711.7
2017-Jun-20 00:26N 37°08' E 003°29'911.5
2017-Jun-19 23:38N 37°09' E 003°41'211.5
2017-Jun-19 23:29N 37°10' E 003°43'511.5
2017-Jun-19 23:00N 37°11' E 003°50'611.6
2017-Jun-19 22:30N 37°12' E 003°57'611.8
2017-Jun-19 22:00N 37°13' E 004°04'611.7
2017-Jun-19 21:30N 37°14' E 004°11'611.9
2017-Jun-19 21:00N 37°15' E 004°19'2111.8
2017-Jun-19 19:13N 37°20' E 004°44'312.0
2017-Jun-19 19:00N 37°20' E 004°48'611.9
2017-Jun-19 18:30N 37°22' E 004°55'612.0
2017-Jun-19 18:00N 37°23' E 005°02'612.0
2017-Jun-19 17:30N 37°24' E 005°10'612.1
2017-Jun-19 17:00N 37°25' E 005°17'612.1
2017-Jun-19 16:30N 37°26' E 005°25'612.2
2017-Jun-19 16:00N 37°28' E 005°32'612.2
2017-Jun-19 15:30N 37°29' E 005°40'612.1
2017-Jun-19 15:00N 37°30' E 005°47'2812.0
2017-Jun-19 12:39N 37°36' E 006°22'8812.1
2017-Jun-19 05:23N 37°44' E 008°13'512.2
2017-Jun-19 04:59N 37°44' E 008°19'612.1
2017-Jun-19 04:30N 37°44' E 008°26'1012.2
2017-Jun-19 03:41N 37°43' E 008°39'312.1
2017-Jun-19 03:24N 37°43' E 008°43'2711.7
2017-Jun-19 01:08N 37°43' E 009°17'4012.0
2017-Jun-18 21:48N 37°42' E 010°07'16712.2
2017-Jun-18 08:06N 36°45' E 013°25'112.3
2017-Jun-18 08:00N 36°45' E 013°26'612.2
2017-Jun-18 07:30N 36°42' E 013°33'612.0
2017-Jun-18 07:00N 36°40' E 013°41'611.9
2017-Jun-18 06:30N 36°38' E 013°48'611.8
2017-Jun-18 06:00N 36°36' E 013°54'611.7
2017-Jun-18 05:30N 36°34' E 014°01'611.8
2017-Jun-18 05:00N 36°32' E 014°08'611.5
2017-Jun-18 04:30N 36°31' E 014°15'611.4
2017-Jun-18 04:00N 36°29' E 014°22'611.5
2017-Jun-18 03:30N 36°27' E 014°29'611.5
2017-Jun-18 03:00N 36°25' E 014°35'611.5
2017-Jun-18 02:30N 36°24' E 014°42'611.4
2017-Jun-18 02:00N 36°22' E 014°49'611.3
2017-Jun-18 01:30N 36°20' E 014°56'611.3
2017-Jun-18 00:59N 36°20' E 015°03'611.6
2017-Jun-18 00:29N 36°20' E 015°10'611.8
2017-Jun-17 23:59N 36°20' E 015°17'611.6
2017-Jun-17 23:28N 36°20' E 015°25'  
2017-Jun-15 16:07N 35°02' E 027°22'113.3
2017-Jun-15 16:00N 35°01' E 027°24'35012.8
2017-Jun-14 12:44N 32°41' E 033°50'913.0
2017-Jun-14 12:04N 32°39' E 033°60'512.9
2017-Jun-14 11:42N 32°38' E 034°05'713.0
2017-Jun-14 11:11N 32°36' E 034°13'1512.6
2017-Jun-14 09:59N 32°32' E 034°31'612.1
2017-Jun-14 09:30N 32°31' E 034°37'612.0
2017-Jun-14 09:00N 32°30' E 034°44'510.4
2017-Jun-14 08:30N 32°28' E 034°50'2 3.4
2017-Jun-14 08:00N 32°28' E 034°52'0 0.0
2017-Jun-14 07:29N 32°28' E 034°52'0 0.0
2017-Jun-14 06:59N 32°28' E 034°52'0 0.0
2017-Jun-14 06:29N 32°28' E 034°52'0 0.0
2017-Jun-14 05:59N 32°28' E 034°52'0 0.0
2017-Jun-14 05:29N 32°28' E 034°52'0 0.0
2017-Jun-14 04:59N 32°28' E 034°52'0 0.0
2017-Jun-14 04:29N 32°28' E 034°52'0 0.0
2017-Jun-14 03:59N 32°28' E 034°52'0 0.0
2017-Jun-14 03:29N 32°28' E 034°52'0 0.0
2017-Jun-14 02:59N 32°28' E 034°52'0 0.0
2017-Jun-14 02:26N 32°28' E 034°52'0 0.0
2017-Jun-14 01:59N 32°28' E 034°52'0 0.0
2017-Jun-14 01:29N 32°28' E 034°52'0 0.0
2017-Jun-14 00:59N 32°28' E 034°52'0 0.0
2017-Jun-14 00:29N 32°28' E 034°52'0 0.0
2017-Jun-13 23:56N 32°28' E 034°52'0 0.0
2017-Jun-13 23:29N 32°28' E 034°52'0 0.0
2017-Jun-13 22:59N 32°28' E 034°52'0 0.0
2017-Jun-13 22:29N 32°28' E 034°52'0 0.0
2017-Jun-13 21:59N 32°28' E 034°52'0 0.0
2017-Jun-13 21:26N 32°28' E 034°52'0 0.0
2017-Jun-13 20:59N 32°28' E 034°52'0 0.0
2017-Jun-13 20:29N 32°28' E 034°52'0 0.0
2017-Jun-13 19:59N 32°28' E 034°52'0 0.0
2017-Jun-13 19:29N 32°28' E 034°52'0 0.0
2017-Jun-13 18:59N 32°28' E 034°52'0 0.0
2017-Jun-13 18:29N 32°28' E 034°52'0 0.0
2017-Jun-13 17:59N 32°28' E 034°52'0 0.0
2017-Jun-13 17:29N 32°28' E 034°52'0 0.0
2017-Jun-13 16:59N 32°28' E 034°52'0 0.0
2017-Jun-13 16:29N 32°28' E 034°52'0 0.0
2017-Jun-13 15:59N 32°28' E 034°52'0 0.0
2017-Jun-13 15:29N 32°28' E 034°52'0 0.0
2017-Jun-13 14:59N 32°28' E 034°52'0 0.0
2017-Jun-13 13:59N 32°28' E 034°52'0 0.0
2017-Jun-13 13:29N 32°28' E 034°52'0 0.0
2017-Jun-13 12:59N 32°28' E 034°52'0 0.0
2017-Jun-13 12:29N 32°28' E 034°52'0 0.0
2017-Jun-13 11:59N 32°28' E 034°52'0 0.0
2017-Jun-13 11:29N 32°28' E 034°52'0 0.0
2017-Jun-13 10:59N 32°28' E 034°52'0 0.0
2017-Jun-13 10:29N 32°28' E 034°52'0 0.0
2017-Jun-13 09:59N 32°28' E 034°52'0 0.0
2017-Jun-13 09:26N 32°28' E 034°52'0 0.0
2017-Jun-13 08:59N 32°28' E 034°52'0 0.0
2017-Jun-13 08:29N 32°28' E 034°52'0 0.0
2017-Jun-13 07:59N 32°28' E 034°52'0 0.0
2017-Jun-13 07:23N 32°28' E 034°52'0 0.0
2017-Jun-13 06:59N 32°28' E 034°52'0 0.0
2017-Jun-13 06:29N 32°28' E 034°52'0 0.0
2017-Jun-13 05:59N 32°28' E 034°52'0 0.0
2017-Jun-13 05:26N 32°28' E 034°52'0 0.0
2017-Jun-13 04:59N 32°28' E 034°52'0 0.0
2017-Jun-13 04:29N 32°28' E 034°52'0 0.0
2017-Jun-13 03:59N 32°28' E 034°52'0 0.0
2017-Jun-13 03:29N 32°28' E 034°52'0 0.0
2017-Jun-13 02:59N 32°28' E 034°52'0 0.0
2017-Jun-13 02:29N 32°28' E 034°52'0 0.0
2017-Jun-13 01:59N 32°28' E 034°52'0 0.0
2017-Jun-13 01:29N 32°28' E 034°52'0 0.0
2017-Jun-13 00:59N 32°28' E 034°52'0 0.0
2017-Jun-13 00:29N 32°28' E 034°52'0 0.0
2017-Jun-12 23:59N 32°28' E 034°52'0 0.0
2017-Jun-12 23:29N 32°28' E 034°52'0 0.0
2017-Jun-12 22:59N 32°28' E 034°52'0 0.0
2017-Jun-12 22:29N 32°28' E 034°52'0 0.0
2017-Jun-12 21:59N 32°28' E 034°52'0 0.0
2017-Jun-12 21:29N 32°28' E 034°52'0 0.0
2017-Jun-12 20:59N 32°28' E 034°52'0 0.0
2017-Jun-12 20:29N 32°28' E 034°52'0 0.0
2017-Jun-12 19:59N 32°28' E 034°52'  

Dump ship's entire track history